English Harbour East, Canada
Current Conditions -  °F | °C
As of 7:00 PM on Thursday 27 Nov 2014 (Local Time) from LFVP Reporting Station
Broken Clouds Broken Clouds  
Wind Chill: 37°   Ceiling: 1600
Heat Index: 46°   Visibility: 4mi
Dew Point: 45°   Wind: 30mph
Humidity: 93%   Direction: 230°SW
Pressure: 29.35"   Gusts: NA
Location:  47.65°N, 54.93°W
Report Text: LFVP 272200Z 23026KT 6000 BKN016 08/07 Q0994 NOSIG
Loading
Personal Weather Stations






























Interactive Weather Map New forecast layout! Learn more

10-Day Weather Forecast

Advertisements
Track Severe Weather on mobile